createdAt,value
2023-07-14T00:04:10.238Z,22.43
2023-07-14T00:08:30.394Z,22.46
2023-07-14T00:12:47.268Z,22.45
2023-07-14T00:17:05.771Z,22.44
2023-07-14T00:21:24.990Z,22.37
2023-07-14T00:25:41.820Z,22.30
2023-07-14T00:29:58.646Z,22.31
2023-07-14T00:34:14.825Z,22.24
2023-07-14T00:38:31.234Z,22.25
2023-07-14T00:42:54.762Z,22.02
2023-07-14T00:47:27.706Z,22.02
2023-07-14T00:51:44.623Z,22.11
2023-07-14T00:56:13.863Z,22.09
2023-07-14T01:00:32.136Z,22.07
2023-07-14T01:04:52.834Z,22.09
2023-07-14T01:09:12.879Z,21.98
2023-07-14T01:13:30.922Z,21.94
2023-07-14T01:17:48.820Z,21.92
2023-07-14T01:22:23.324Z,21.85
2023-07-14T01:26:59.282Z,21.89
2023-07-14T01:31:22.598Z,21.86
2023-07-14T01:35:43.063Z,21.90
2023-07-14T01:39:59.690Z,21.98
2023-07-14T01:44:19.148Z,21.86
2023-07-14T01:49:01.016Z,21.99
2023-07-14T01:53:24.841Z,22.03
2023-07-14T01:57:41.929Z,21.84
2023-07-14T02:02:03.320Z,21.93
2023-07-14T02:06:19.615Z,21.89
2023-07-14T02:10:35.910Z,21.86
2023-07-14T02:15:07.796Z,21.91
2023-07-14T02:19:26.063Z,21.72
2023-07-14T02:23:43.251Z,21.62
2023-07-14T02:27:59.543Z,21.59
2023-07-14T02:32:21.735Z,21.53
2023-07-14T02:37:00.749Z,21.58
2023-07-14T02:41:27.320Z,21.51
2023-07-14T02:45:59.739Z,21.59
2023-07-14T02:50:15.985Z,21.42
2023-07-14T02:54:32.163Z,21.51
2023-07-14T02:58:51.407Z,21.32
2023-07-14T03:03:07.902Z,21.26
2023-07-14T03:07:24.230Z,21.20
2023-07-14T03:11:40.429Z,20.99
2023-07-14T03:15:56.693Z,21.12
2023-07-14T03:20:15.439Z,21.19
2023-07-14T03:24:31.740Z,21.11
2023-07-14T03:28:47.985Z,21.22
2023-07-14T03:33:04.273Z,20.89
2023-07-14T03:37:20.648Z,21.10
2023-07-14T03:41:36.869Z,21.08
2023-07-14T03:45:53.159Z,21.14
2023-07-14T03:50:12.860Z,21.25
2023-07-14T03:54:29.096Z,21.37
2023-07-14T03:58:45.357Z,21.29
2023-07-14T04:03:01.918Z,21.29
2023-07-14T04:07:18.252Z,21.38
2023-07-14T04:11:35.862Z,21.45
2023-07-14T04:15:52.071Z,21.35
2023-07-14T04:20:08.752Z,21.42
2023-07-14T04:24:24.949Z,21.46
2023-07-14T04:28:41.090Z,21.60
2023-07-14T04:32:59.386Z,21.61
2023-07-14T04:37:15.590Z,21.72
2023-07-14T04:41:32.406Z,21.81
2023-07-14T04:45:50.841Z,21.86
2023-07-14T04:50:08.510Z,21.79
2023-07-14T04:54:25.400Z,21.81
2023-07-14T04:58:41.714Z,21.94
2023-07-14T05:02:58.317Z,22.13
2023-07-14T05:07:14.783Z,22.31
2023-07-14T05:11:31.026Z,22.46
2023-07-14T05:15:48.439Z,22.60
2023-07-14T05:20:07.433Z,22.86
2023-07-14T05:24:23.844Z,23.12
2023-07-14T05:28:40.333Z,23.29
2023-07-14T05:32:56.587Z,23.31
2023-07-14T05:37:12.929Z,23.49
2023-07-14T05:41:29.091Z,23.80
2023-07-14T05:45:48.426Z,23.73
2023-07-14T05:50:06.740Z,23.90
2023-07-14T05:54:23.211Z,24.00
2023-07-14T05:58:39.799Z,24.03
2023-07-14T06:02:56.136Z,23.85
2023-07-14T06:07:13.043Z,24.00
2023-07-14T06:11:29.268Z,24.05
2023-07-14T06:15:51.583Z,24.10
2023-07-14T06:20:08.604Z,24.36
2023-07-14T06:24:25.511Z,24.24
2023-07-14T06:28:42.487Z,24.37
2023-07-14T06:32:59.051Z,24.41
2023-07-14T06:37:15.244Z,24.10
2023-07-14T06:41:31.555Z,24.36
2023-07-14T06:45:51.183Z,24.22
2023-07-14T06:50:07.772Z,24.49
2023-07-14T06:54:23.997Z,24.33
2023-07-14T06:58:40.188Z,24.52
2023-07-14T07:02:56.381Z,24.54
2023-07-14T07:07:12.523Z,24.67
2023-07-14T07:11:28.703Z,24.62
2023-07-14T07:15:46.842Z,24.60
2023-07-14T07:20:04.646Z,24.38
2023-07-14T07:24:20.863Z,24.73
2023-07-14T07:28:37.323Z,24.86
2023-07-14T07:32:53.651Z,24.94
2023-07-14T07:37:10.238Z,24.73
2023-07-14T07:41:27.726Z,24.67
2023-07-14T07:45:49.931Z,25.26
2023-07-14T07:50:06.830Z,24.96
2023-07-14T07:54:23.044Z,25.23
2023-07-14T07:58:39.177Z,25.24
2023-07-14T08:02:55.561Z,25.20
2023-07-14T08:07:14.676Z,25.74
2023-07-14T08:11:31.640Z,25.92
2023-07-14T08:15:49.027Z,26.11
2023-07-14T08:20:09.172Z,26.18
2023-07-14T08:24:25.422Z,26.21
2023-07-14T08:28:42.844Z,26.23
2023-07-14T08:32:59.637Z,26.39
2023-07-14T08:37:15.955Z,26.79
2023-07-14T08:41:35.320Z,27.05
2023-07-14T08:46:15.941Z,27.09
2023-07-14T08:50:33.704Z,27.59
2023-07-14T08:55:11.907Z,27.54
2023-07-14T08:59:33.940Z,27.94
2023-07-14T09:03:55.279Z,28.20
2023-07-14T09:08:12.561Z,28.19
2023-07-14T09:12:55.219Z,28.55
2023-07-14T09:17:44.937Z,28.91
2023-07-14T09:22:01.119Z,28.99
2023-07-14T09:26:36.337Z,29.32
2023-07-14T09:30:54.231Z,29.34
2023-07-14T09:35:21.517Z,29.62
2023-07-14T09:39:43.491Z,29.76
2023-07-14T09:44:02.625Z,29.98
2023-07-14T09:48:31.534Z,30.06
2023-07-14T09:52:57.012Z,30.21
2023-07-14T09:57:25.069Z,30.26
2023-07-14T10:02:01.248Z,30.06
2023-07-14T10:06:26.856Z,30.65
2023-07-14T10:10:44.561Z,31.14
2023-07-14T10:15:01.998Z,30.95
2023-07-14T10:19:20.564Z,30.31
2023-07-14T10:23:37.041Z,30.88
2023-07-14T10:28:11.655Z,30.86
2023-07-14T10:32:53.359Z,31.24
2023-07-14T10:37:40.600Z,31.51
2023-07-14T10:41:58.356Z,32.05
2023-07-14T10:46:22.526Z,31.94
2023-07-14T10:50:54.296Z,32.02
2023-07-14T10:55:32.640Z,31.71
2023-07-14T10:59:55.895Z,31.75
2023-07-14T11:04:35.712Z,31.51
2023-07-14T11:08:57.365Z,31.19
2023-07-14T11:13:31.506Z,30.70
2023-07-14T11:18:19.643Z,31.26
2023-07-14T11:22:48.476Z,31.47
2023-07-14T11:27:29.934Z,31.39
2023-07-14T11:31:53.923Z,31.47
2023-07-14T11:36:20.873Z,31.90
2023-07-14T11:40:41.756Z,32.32
2023-07-14T11:45:01.483Z,32.44
2023-07-14T11:49:38.505Z,32.71
2023-07-14T11:54:14.392Z,32.87
2023-07-14T11:58:32.243Z,32.69
2023-07-14T12:02:53.169Z,32.27
2023-07-14T12:07:24.054Z,32.84
2023-07-14T12:11:42.750Z,32.84
2023-07-14T12:16:02.651Z,32.20
2023-07-14T12:20:47.908Z,32.51
2023-07-14T12:25:21.072Z,32.49
2023-07-14T12:29:52.129Z,32.16
2023-07-14T12:34:33.418Z,32.21
2023-07-14T12:38:53.157Z,32.46
2023-07-14T12:43:29.300Z,32.40
2023-07-14T12:47:50.089Z,32.25
2023-07-14T12:52:15.204Z,31.73
2023-07-14T12:56:34.635Z,32.31
2023-07-14T13:00:58.628Z,32.26
2023-07-14T13:05:18.582Z,32.75
2023-07-14T13:09:35.581Z,32.61
2023-07-14T13:13:57.268Z,32.54
2023-07-14T13:18:33.447Z,32.81
2023-07-14T13:23:12.605Z,33.22
2023-07-14T13:27:28.880Z,33.00
2023-07-14T13:31:46.581Z,33.03
2023-07-14T13:36:08.963Z,33.30
2023-07-14T13:40:28.056Z,33.54
2023-07-14T13:44:51.423Z,33.01
2023-07-14T13:49:09.272Z,33.51
2023-07-14T13:53:25.941Z,34.06
2023-07-14T13:57:45.009Z,34.11
2023-07-14T14:02:25.644Z,33.67
2023-07-14T14:06:43.173Z,33.88
2023-07-14T14:10:59.493Z,33.66
2023-07-14T14:15:20.715Z,33.63
2023-07-14T14:19:37.103Z,33.44
2023-07-14T14:23:53.453Z,33.43
2023-07-14T14:28:10.310Z,32.79
2023-07-14T14:32:26.693Z,32.41
2023-07-14T14:36:43.024Z,33.52
2023-07-14T14:41:01.597Z,33.25
2023-07-14T14:45:23.848Z,33.42
2023-07-14T14:49:40.253Z,33.22
2023-07-14T14:53:56.715Z,33.19
2023-07-14T14:58:27.216Z,33.13
2023-07-14T15:02:43.528Z,33.09
2023-07-14T15:06:59.957Z,33.35
2023-07-14T15:11:19.199Z,33.72
2023-07-14T15:15:37.665Z,34.14
2023-07-14T15:19:54.336Z,33.93
2023-07-14T15:24:13.468Z,33.57
2023-07-14T15:28:29.842Z,33.33
2023-07-14T15:32:46.094Z,33.07
2023-07-14T15:37:02.511Z,32.98
2023-07-14T15:41:22.556Z,32.91
2023-07-14T15:45:38.751Z,33.15
2023-07-14T15:49:55.252Z,33.39
2023-07-14T15:54:27.485Z,33.31
2023-07-14T15:58:43.831Z,33.41
2023-07-14T16:03:00.993Z,33.29
2023-07-14T16:07:18.701Z,33.42
2023-07-14T16:11:36.662Z,33.18
2023-07-14T16:15:54.241Z,33.06
2023-07-14T16:20:19.041Z,32.87
2023-07-14T16:24:38.931Z,32.67
2023-07-14T16:28:56.456Z,32.55
2023-07-14T16:33:14.242Z,32.31
2023-07-14T16:37:31.992Z,32.25
2023-07-14T16:41:48.634Z,32.17
2023-07-14T16:46:05.327Z,32.12
2023-07-14T16:50:23.554Z,32.28
2023-07-14T16:54:39.898Z,32.27
2023-07-14T16:58:56.387Z,32.28
2023-07-14T17:03:29.707Z,32.29
2023-07-14T17:07:46.522Z,31.91
2023-07-14T17:12:03.256Z,31.76
2023-07-14T17:16:20.128Z,31.55
2023-07-14T17:20:36.653Z,31.42
2023-07-14T17:24:53.896Z,31.21
2023-07-14T17:29:18.221Z,31.02
2023-07-14T17:33:35.515Z,30.84
2023-07-14T17:37:56.449Z,30.77
2023-07-14T17:42:19.146Z,30.69
2023-07-14T17:46:35.495Z,30.77
2023-07-14T17:50:54.083Z,30.47
2023-07-14T17:55:19.536Z,30.38
2023-07-14T17:59:36.091Z,30.15
2023-07-14T18:03:52.525Z,30.01
2023-07-14T18:08:11.561Z,29.86
2023-07-14T18:12:29.820Z,29.62
2023-07-14T18:16:46.436Z,29.18
2023-07-14T18:21:03.650Z,29.09
2023-07-14T18:25:25.209Z,28.86
2023-07-14T18:29:42.150Z,28.49
2023-07-14T18:33:58.332Z,28.48
2023-07-14T18:38:17.420Z,28.21
2023-07-14T18:42:33.571Z,28.05
2023-07-14T18:46:50.306Z,27.97
2023-07-14T18:51:22.598Z,27.70
2023-07-14T18:55:42.814Z,27.51
2023-07-14T18:59:59.034Z,27.34
2023-07-14T19:04:20.362Z,27.28
2023-07-14T19:08:36.615Z,27.07
2023-07-14T19:12:52.888Z,26.91
2023-07-14T19:17:15.349Z,26.79
2023-07-14T19:21:33.117Z,26.85
2023-07-14T19:25:49.328Z,26.66
2023-07-14T19:30:13.534Z,26.56
2023-07-14T19:34:37.937Z,26.42
2023-07-14T19:38:54.226Z,26.40
2023-07-14T19:43:18.924Z,26.16
2023-07-14T19:47:35.196Z,26.14
2023-07-14T19:51:56.617Z,26.08
2023-07-14T19:56:13.047Z,26.07
2023-07-14T20:00:32.364Z,25.97
2023-07-14T20:04:48.502Z,26.10
2023-07-14T20:09:07.705Z,25.83
2023-07-14T20:13:26.647Z,25.75
2023-07-14T20:17:42.970Z,25.82
2023-07-14T20:22:01.026Z,25.82
2023-07-14T20:26:20.163Z,25.74
2023-07-14T20:30:36.553Z,25.61
2023-07-14T20:35:00.843Z,25.62
2023-07-14T20:39:21.716Z,25.48
2023-07-14T20:43:39.229Z,25.37
2023-07-14T20:47:56.808Z,25.40
2023-07-14T20:52:24.184Z,25.18
2023-07-14T20:56:40.850Z,25.36
2023-07-14T21:00:58.394Z,25.35
2023-07-14T21:05:14.938Z,25.15
2023-07-14T21:09:31.156Z,25.05
2023-07-14T21:13:53.057Z,25.06
2023-07-14T21:18:13.714Z,25.06
2023-07-14T21:22:30.536Z,24.97
2023-07-14T21:26:47.053Z,25.09
2023-07-14T21:31:06.518Z,24.95
2023-07-14T21:35:23.055Z,24.74
2023-07-14T21:39:39.531Z,24.66
2023-07-14T21:43:56.686Z,24.68
2023-07-14T21:48:23.775Z,24.53
2023-07-14T21:52:40.049Z,24.39
2023-07-14T21:56:56.308Z,24.30
2023-07-14T22:01:34.489Z,24.32
2023-07-14T22:05:55.321Z,24.18
2023-07-14T22:10:18.161Z,24.14
2023-07-14T22:14:34.516Z,24.16
2023-07-14T22:18:51.167Z,24.06
2023-07-14T22:23:09.302Z,23.95
2023-07-14T22:27:25.730Z,23.97
2023-07-14T22:31:42.263Z,24.06
2023-07-14T22:35:59.978Z,23.75
2023-07-14T22:40:17.589Z,23.66
2023-07-14T22:44:33.862Z,23.75
2023-07-14T22:48:50.362Z,23.65
2023-07-14T22:53:07.059Z,24.06
2023-07-14T22:57:23.353Z,23.90
2023-07-14T23:01:39.793Z,23.63
2023-07-14T23:06:00.877Z,23.62
2023-07-14T23:10:17.207Z,23.52
2023-07-14T23:14:33.632Z,23.46
2023-07-14T23:18:49.902Z,23.52
2023-07-14T23:23:10.890Z,23.59
2023-07-14T23:27:27.231Z,23.54
2023-07-14T23:31:45.942Z,23.43
2023-07-14T23:36:02.180Z,23.20
2023-07-14T23:40:19.873Z,23.27
2023-07-14T23:44:36.110Z,23.24
2023-07-14T23:48:55.401Z,23.20
2023-07-14T23:53:35.808Z,23.05
2023-07-14T23:57:53.421Z,23.13
